»·PEaware :: N978AP KSMX-KAVX

N978AP :: KSMX-KAVX

FLIGHT INFORMATION

Flight Status: Arrived
Operator: Privately registered:
United States
More flights under this callsign
Pilot: Chris C. (17159)
Aircraft: CESSNA 172 SKYHAWK
(C172)
More flights by this aircraft type
Origin: KSMX Santa Maria Pub/Capt Hancock
United States
Destination: KAVX Catalina
United States
More flights between these airports :: More routes between these airports
Route:
File this flight plan on PilotEdge
Remarks:
Altitude:
(Current/Filed)
7,500ft
Speed:
(Current/Filed)
120kts
Departed: 10-Jan-18 03:26 PM
Arrived: 10-Jan-18 04:36 PM
Distance/Time
Traveled:
135nm/1:10
Distance/Time
To Go:
Arrived

Flight Plot

Page will automatically refresh every two minutes.

Flight plan parsing failed; only flown route is shown


Map Options




Map Legend


Flown Route
Filed Route
Departure Airport
Arrival Airport
Navaid (VOR, NDB)
Fix

Horizontal Profiles

Position Reports

Time Latitude Longitude Heading Altitude Ground
Speed
10-Jan-18 15:23 34.896407 -120.445530 251 264ft 0kts
10-Jan-18 15:24 34.896407 -120.445530 251 264ft 0kts
10-Jan-18 15:25 34.896349 -120.445622 235 264ft 2kts
10-Jan-18 15:26 34.894664 -120.444894 226 264ft 9kts
10-Jan-18 15:27 34.893318 -120.444667 275 264ft 0kts
10-Jan-18 15:28 34.893318 -120.444667 275 264ft 0kts
10-Jan-18 15:29 34.893321 -120.444708 272 264ft 1kts
10-Jan-18 15:30 34.893231 -120.444933 198 264ft 0kts
10-Jan-18 15:31 34.893231 -120.444933 198 264ft 0kts
10-Jan-18 15:32 34.894891 -120.448273 317 302ft 60kts
10-Jan-18 15:33 34.909285 -120.448888 69 1322ft 93kts
10-Jan-18 15:34 34.894612 -120.428465 156 2336ft 91kts
10-Jan-18 15:35 34.871009 -120.405655 138 3033ft 119kts
10-Jan-18 15:36 34.850347 -120.379490 136 4074ft 99kts
10-Jan-18 15:37 34.834290 -120.357132 129 4993ft 82kts
10-Jan-18 15:38 34.814586 -120.329301 135 5440ft 121kts
10-Jan-18 15:39 34.791939 -120.298859 133 6120ft 121kts
10-Jan-18 15:40 34.769828 -120.268324 133 6804ft 120kts
10-Jan-18 15:41 34.748155 -120.238201 132 7450ft 121kts
10-Jan-18 15:42 34.723161 -120.203567 132 7480ft 146kts
10-Jan-18 15:43 34.696638 -120.166731 132 7424ft 144kts
10-Jan-18 15:44 34.670725 -120.130737 133 7422ft 141kts
10-Jan-18 15:45 34.645190 -120.095277 132 7422ft 139kts
10-Jan-18 15:46 34.620372 -120.060642 132 7423ft 138kts
10-Jan-18 15:47 34.601532 -120.033684 132 7421ft 138kts
10-Jan-18 15:48 34.577051 -119.996770 129 7423ft 143kts
10-Jan-18 15:49 34.551702 -119.964658 131 7393ft 122kts
10-Jan-18 15:50 34.529339 -119.934621 130 7397ft 120kts
10-Jan-18 15:51 34.507145 -119.904205 129 7397ft 121kts
10-Jan-18 15:52 34.484935 -119.873638 129 7397ft 121kts
10-Jan-18 15:53 34.462247 -119.842365 129 7397ft 127kts
10-Jan-18 15:54 34.439004 -119.810378 129 7397ft 127kts
10-Jan-18 15:55 34.415672 -119.778292 129 7397ft 127kts
10-Jan-18 15:56 34.392309 -119.746192 129 7397ft 127kts
10-Jan-18 15:57 34.368861 -119.714004 129 7397ft 127kts
10-Jan-18 15:58 34.345523 -119.681997 129 7397ft 127kts
10-Jan-18 15:59 34.322094 -119.649894 129 7397ft 127kts
10-Jan-18 16:00 34.298720 -119.617895 129 7397ft 127kts
10-Jan-18 16:01 34.275203 -119.585723 129 7397ft 128kts
10-Jan-18 16:02 34.251425 -119.553146 132 7398ft 130kts
10-Jan-18 16:03 34.227420 -119.520456 133 7100ft 128kts
10-Jan-18 16:04 34.203982 -119.488566 133 6603ft 126kts
10-Jan-18 16:05 34.180774 -119.456960 133 6107ft 125kts
10-Jan-18 16:06 34.156424 -119.423824 133 5331ft 136kts
10-Jan-18 16:07 34.131187 -119.389554 131 4541ft 136kts
10-Jan-18 16:08 34.106811 -119.356454 131 3237ft 131kts
10-Jan-18 16:09 34.085898 -119.328038 131 2043ft 121kts
10-Jan-18 16:10 34.063438 -119.297522 131 1405ft 127kts
10-Jan-18 16:11 34.040503 -119.266398 131 1395ft 124kts
10-Jan-18 16:12 34.017804 -119.235652 131 1397ft 122kts
10-Jan-18 16:13 33.995304 -119.205185 131 1406ft 121kts
10-Jan-18 16:14 33.972997 -119.174996 133 1423ft 120kts
10-Jan-18 16:15 33.950688 -119.144900 133 1423ft 120kts
10-Jan-18 16:16 33.929676 -119.116410 132 2061ft 108kts
10-Jan-18 16:17 33.910155 -119.089945 133 2894ft 109kts
10-Jan-18 16:18 33.887971 -119.060212 133 2787ft 130kts
10-Jan-18 16:19 33.864135 -119.028248 133 2426ft 125kts
10-Jan-18 16:20 33.840543 -118.996517 133 2424ft 128kts
10-Jan-18 16:21 33.816597 -118.964340 133 2424ft 129kts
10-Jan-18 16:22 33.792606 -118.932074 134 2423ft 130kts
10-Jan-18 16:23 33.768193 -118.899371 134 2424ft 132kts
10-Jan-18 16:24 33.743588 -118.866409 134 2424ft 132kts
10-Jan-18 16:25 33.719022 -118.833521 133 2503ft 127kts
10-Jan-18 16:26 33.697953 -118.805204 133 3468ft 105kts
10-Jan-18 16:27 33.679645 -118.780656 133 4443ft 94kts
10-Jan-18 16:28 33.656786 -118.750286 134 4471ft 134kts
10-Jan-18 16:29 33.631914 -118.717146 134 4470ft 134kts
10-Jan-18 16:30 33.607069 -118.684024 134 4470ft 134kts
10-Jan-18 16:31 33.583394 -118.652487 134 4180ft 112kts
10-Jan-18 16:32 33.563872 -118.626565 134 3392ft 112kts
10-Jan-18 16:33 33.542290 -118.597835 134 2576ft 109kts
10-Jan-18 16:34 33.525506 -118.575495 134 2569ft 85kts
10-Jan-18 16:35 33.504548 -118.547670 134 2573ft 126kts
10-Jan-18 16:36 33.480784 -118.516135 134 2570ft 129kts
10-Jan-18 16:37 33.456794 -118.484330 134 2570ft 130kts
10-Jan-18 16:38 33.433169 -118.453037 134 2569ft 126kts
10-Jan-18 16:39 33.425922 -118.422360 54 2606ft 83kts
10-Jan-18 16:40 33.428259 -118.400420 141 2338ft 71kts
10-Jan-18 16:41 33.412405 -118.401839 244 1887ft 66kts
10-Jan-18 16:42 33.404650 -118.416363 236 1569ft 20kts
10-Jan-18 16:43 33.403438 -118.416094 112 1569ft 1kts
10-Jan-18 16:44 33.403507 -118.415578 50 1569ft 0kts
10-Jan-18 16:45 33.403555 -118.415687 146 1569ft 1kts
10-Jan-18 16:46 33.403608 -118.415730 145 1569ft 0kts
10-Jan-18 16:47 33.403345 -118.416297 27 1569ft 0kts
10-Jan-18 16:48 33.403345 -118.416296 27 1570ft 0kts
10-Jan-18 16:49 33.403345 -118.416296 27 1570ft 0kts
10-Jan-18 16:50 33.403345 -118.416296 27 1570ft 0kts
10-Jan-18 16:51 33.403345 -118.416296 27 1570ft 0kts
10-Jan-18 16:52 33.403346 -118.416296 27 1570ft 0kts
10-Jan-18 16:53 33.403346 -118.416296 27 1570ft 0kts
10-Jan-18 16:54 33.403346 -118.416296 27 1570ft 0kts

Navigation Log

Ident Type
Flight plan parsing failed, navigation log unavailable